sensor_id;sensor_type;location;lat;lon;timestamp;temperature;humidity
21807;DHT22;11065;50.786;7.840;2023-01-30T00:01:14;5.10;52.80
21807;DHT22;11065;50.786;7.840;2023-01-30T00:03:42;5.10;52.70
21807;DHT22;11065;50.786;7.840;2023-01-30T00:06:12;5.10;52.80
21807;DHT22;11065;50.786;7.840;2023-01-30T00:08:40;5.10;52.60
21807;DHT22;11065;50.786;7.840;2023-01-30T00:11:10;5.10;52.60
21807;DHT22;11065;50.786;7.840;2023-01-30T00:13:38;5.10;52.60
21807;DHT22;11065;50.786;7.840;2023-01-30T00:16:07;5.10;52.90
21807;DHT22;11065;50.786;7.840;2023-01-30T00:18:36;5.10;52.90
21807;DHT22;11065;50.786;7.840;2023-01-30T00:21:06;5.10;52.70
21807;DHT22;11065;50.786;7.840;2023-01-30T00:23:36;5.10;52.70
21807;DHT22;11065;50.786;7.840;2023-01-30T00:26:05;5.20;53.00
21807;DHT22;11065;50.786;7.840;2023-01-30T00:28:36;5.20;52.90
21807;DHT22;11065;50.786;7.840;2023-01-30T00:31:05;5.20;53.10
21807;DHT22;11065;50.786;7.840;2023-01-30T00:33:35;5.20;53.20
21807;DHT22;11065;50.786;7.840;2023-01-30T00:36:04;5.20;53.50
21807;DHT22;11065;50.786;7.840;2023-01-30T00:38:32;5.20;53.00
21807;DHT22;11065;50.786;7.840;2023-01-30T00:41:02;5.20;53.10
21807;DHT22;11065;50.786;7.840;2023-01-30T00:43:30;5.20;53.20
21807;DHT22;11065;50.786;7.840;2023-01-30T00:46:21;5.20;52.90
21807;DHT22;11065;50.786;7.840;2023-01-30T00:49:08;5.20;52.90
21807;DHT22;11065;50.786;7.840;2023-01-30T00:51:36;5.20;53.30
21807;DHT22;11065;50.786;7.840;2023-01-30T00:54:04;5.20;53.00
21807;DHT22;11065;50.786;7.840;2023-01-30T00:56:34;5.20;53.70
21807;DHT22;11065;50.786;7.840;2023-01-30T00:59:02;5.20;53.30
21807;DHT22;11065;50.786;7.840;2023-01-30T01:01:30;5.30;53.40
21807;DHT22;11065;50.786;7.840;2023-01-30T01:03:58;5.30;53.80
21807;DHT22;11065;50.786;7.840;2023-01-30T01:06:26;5.20;53.40
21807;DHT22;11065;50.786;7.840;2023-01-30T01:08:55;5.30;53.40
21807;DHT22;11065;50.786;7.840;2023-01-30T01:11:23;5.30;53.40
21807;DHT22;11065;50.786;7.840;2023-01-30T01:13:53;5.30;53.30
21807;DHT22;11065;50.786;7.840;2023-01-30T01:16:22;5.30;53.40
21807;DHT22;11065;50.786;7.840;2023-01-30T01:18:50;5.30;53.30
21807;DHT22;11065;50.786;7.840;2023-01-30T01:21:19;5.30;53.40
21807;DHT22;11065;50.786;7.840;2023-01-30T01:23:49;5.40;53.30
21807;DHT22;11065;50.786;7.840;2023-01-30T01:26:18;5.40;53.30
21807;DHT22;11065;50.786;7.840;2023-01-30T01:28:46;5.40;53.80
21807;DHT22;11065;50.786;7.840;2023-01-30T01:31:16;5.40;53.50
21807;DHT22;11065;50.786;7.840;2023-01-30T01:33:44;5.50;53.60
21807;DHT22;11065;50.786;7.840;2023-01-30T01:36:12;5.40;53.60
21807;DHT22;11065;50.786;7.840;2023-01-30T01:39:00;5.40;53.60
21807;DHT22;11065;50.786;7.840;2023-01-30T01:41:30;5.50;53.50
21807;DHT22;11065;50.786;7.840;2023-01-30T01:44:02;5.40;53.70
21807;DHT22;11065;50.786;7.840;2023-01-30T01:46:35;5.50;53.50
21807;DHT22;11065;50.786;7.840;2023-01-30T01:49:11;5.50;53.40
21807;DHT22;11065;50.786;7.840;2023-01-30T01:51:41;5.50;53.40
21807;DHT22;11065;50.786;7.840;2023-01-30T01:54:18;5.50;53.40
21807;DHT22;11065;50.786;7.840;2023-01-30T01:56:49;5.50;53.60
21807;DHT22;11065;50.786;7.840;2023-01-30T01:59:25;5.50;53.40
21807;DHT22;11065;50.786;7.840;2023-01-30T02:01:58;5.50;53.50
21807;DHT22;11065;50.786;7.840;2023-01-30T02:04:30;5.50;53.40
21807;DHT22;11065;50.786;7.840;2023-01-30T02:07:13;5.50;53.30
21807;DHT22;11065;50.786;7.840;2023-01-30T02:09:43;5.60;53.40
21807;DHT22;11065;50.786;7.840;2023-01-30T02:12:14;5.60;53.30
21807;DHT22;11065;50.786;7.840;2023-01-30T02:14:42;5.60;53.40
21807;DHT22;11065;50.786;7.840;2023-01-30T02:17:13;5.60;53.70
21807;DHT22;11065;50.786;7.840;2023-01-30T02:19:47;5.60;53.50
21807;DHT22;11065;50.786;7.840;2023-01-30T02:22:27;5.60;53.60
21807;DHT22;11065;50.786;7.840;2023-01-30T02:28:31;5.70;53.80
21807;DHT22;11065;50.786;7.840;2023-01-30T02:31:09;5.70;53.80
21807;DHT22;11065;50.786;7.840;2023-01-30T02:33:51;5.70;54.10
21807;DHT22;11065;50.786;7.840;2023-01-30T02:36:26;5.70;54.00
21807;DHT22;11065;50.786;7.840;2023-01-30T02:39:03;5.70;53.90
21807;DHT22;11065;50.786;7.840;2023-01-30T02:41:37;5.70;54.10
21807;DHT22;11065;50.786;7.840;2023-01-30T02:44:15;5.70;53.90
21807;DHT22;11065;50.786;7.840;2023-01-30T02:46:52;5.70;53.80
21807;DHT22;11065;50.786;7.840;2023-01-30T02:49:25;5.70;54.00
21807;DHT22;11065;50.786;7.840;2023-01-30T02:51:54;5.70;54.00
21807;DHT22;11065;50.786;7.840;2023-01-30T02:54:23;5.70;53.90
21807;DHT22;11065;50.786;7.840;2023-01-30T02:56:53;5.80;54.00
21807;DHT22;11065;50.786;7.840;2023-01-30T02:59:26;5.80;54.60
21807;DHT22;11065;50.786;7.840;2023-01-30T03:05:18;5.80;54.40
21807;DHT22;11065;50.786;7.840;2023-01-30T03:07:54;5.80;54.50
21807;DHT22;11065;50.786;7.840;2023-01-30T03:10:35;5.80;54.40
21807;DHT22;11065;50.786;7.840;2023-01-30T03:13:12;5.80;54.30
21807;DHT22;11065;50.786;7.840;2023-01-30T03:15:45;5.80;54.20
21807;DHT22;11065;50.786;7.840;2023-01-30T03:18:18;5.80;54.40
21807;DHT22;11065;50.786;7.840;2023-01-30T03:20:47;5.80;54.50
21807;DHT22;11065;50.786;7.840;2023-01-30T03:23:15;5.80;54.60
21807;DHT22;11065;50.786;7.840;2023-01-30T03:25:45;5.80;54.40
21807;DHT22;11065;50.786;7.840;2023-01-30T03:28:17;5.80;54.40
21807;DHT22;11065;50.786;7.840;2023-01-30T03:30:48;5.80;54.90
21807;DHT22;11065;50.786;7.840;2023-01-30T03:33:17;5.80;55.00
21807;DHT22;11065;50.786;7.840;2023-01-30T03:35:47;5.80;55.30
21807;DHT22;11065;50.786;7.840;2023-01-30T03:38:16;5.80;54.90
21807;DHT22;11065;50.786;7.840;2023-01-30T03:40:45;5.80;54.70
21807;DHT22;11065;50.786;7.840;2023-01-30T03:43:14;5.80;54.70
21807;DHT22;11065;50.786;7.840;2023-01-30T03:45:42;5.80;54.80
21807;DHT22;11065;50.786;7.840;2023-01-30T03:48:10;5.80;54.70
21807;DHT22;11065;50.786;7.840;2023-01-30T03:50:40;5.90;54.90
21807;DHT22;11065;50.786;7.840;2023-01-30T03:53:09;5.90;55.00
21807;DHT22;11065;50.786;7.840;2023-01-30T03:55:37;5.90;54.70
21807;DHT22;11065;50.786;7.840;2023-01-30T03:58:06;5.90;54.90
21807;DHT22;11065;50.786;7.840;2023-01-30T04:00:34;5.90;54.80
21807;DHT22;11065;50.786;7.840;2023-01-30T04:03:03;5.90;55.20
21807;DHT22;11065;50.786;7.840;2023-01-30T04:05:31;5.90;56.00
21807;DHT22;11065;50.786;7.840;2023-01-30T04:08:05;6.00;55.30
21807;DHT22;11065;50.786;7.840;2023-01-30T04:10:34;6.00;55.80
21807;DHT22;11065;50.786;7.840;2023-01-30T04:13:02;6.00;55.30
21807;DHT22;11065;50.786;7.840;2023-01-30T04:15:31;6.00;55.00
21807;DHT22;11065;50.786;7.840;2023-01-30T04:18:22;6.00;55.90
21807;DHT22;11065;50.786;7.840;2023-01-30T04:20:56;6.00;55.60
21807;DHT22;11065;50.786;7.840;2023-01-30T04:23:33;6.00;56.60
21807;DHT22;11065;50.786;7.840;2023-01-30T04:26:02;6.00;55.80
21807;DHT22;11065;50.786;7.840;2023-01-30T04:28:33;6.00;55.40
21807;DHT22;11065;50.786;7.840;2023-01-30T04:31:02;6.10;55.50
21807;DHT22;11065;50.786;7.840;2023-01-30T04:33:43;6.10;55.40
21807;DHT22;11065;50.786;7.840;2023-01-30T04:36:12;6.10;55.20
21807;DHT22;11065;50.786;7.840;2023-01-30T04:38:42;6.10;55.50
21807;DHT22;11065;50.786;7.840;2023-01-30T04:41:11;6.20;55.60
21807;DHT22;11065;50.786;7.840;2023-01-30T04:43:41;6.20;55.60
21807;DHT22;11065;50.786;7.840;2023-01-30T04:46:28;6.20;55.60
21807;DHT22;11065;50.786;7.840;2023-01-30T04:48:56;6.20;55.40
21807;DHT22;11065;50.786;7.840;2023-01-30T04:51:25;6.20;55.30
21807;DHT22;11065;50.786;7.840;2023-01-30T04:53:54;6.20;55.60
21807;DHT22;11065;50.786;7.840;2023-01-30T04:56:22;6.30;55.80
21807;DHT22;11065;50.786;7.840;2023-01-30T04:58:51;6.30;55.60
21807;DHT22;11065;50.786;7.840;2023-01-30T05:01:24;6.30;55.50
21807;DHT22;11065;50.786;7.840;2023-01-30T05:03:53;6.30;55.60
21807;DHT22;11065;50.786;7.840;2023-01-30T05:06:21;6.30;55.50
21807;DHT22;11065;50.786;7.840;2023-01-30T05:08:50;6.40;55.60
21807;DHT22;11065;50.786;7.840;2023-01-30T05:11:20;6.40;55.50
21807;DHT22;11065;50.786;7.840;2023-01-30T05:13:49;6.40;55.70
21807;DHT22;11065;50.786;7.840;2023-01-30T05:16:18;6.40;55.60
21807;DHT22;11065;50.786;7.840;2023-01-30T05:18:47;6.40;55.40
21807;DHT22;11065;50.786;7.840;2023-01-30T05:21:18;6.40;55.50
21807;DHT22;11065;50.786;7.840;2023-01-30T05:23:47;6.40;55.60
21807;DHT22;11065;50.786;7.840;2023-01-30T05:26:15;6.40;55.70
21807;DHT22;11065;50.786;7.840;2023-01-30T05:28:50;6.40;55.50
21807;DHT22;11065;50.786;7.840;2023-01-30T05:31:19;6.50;55.40
21807;DHT22;11065;50.786;7.840;2023-01-30T05:33:48;6.40;55.80
21807;DHT22;11065;50.786;7.840;2023-01-30T05:36:20;6.50;55.70
21807;DHT22;11065;50.786;7.840;2023-01-30T05:38:49;6.40;55.50
21807;DHT22;11065;50.786;7.840;2023-01-30T05:41:18;6.50;55.60
21807;DHT22;11065;50.786;7.840;2023-01-30T05:43:51;6.50;55.30
21807;DHT22;11065;50.786;7.840;2023-01-30T05:46:20;6.50;55.50
21807;DHT22;11065;50.786;7.840;2023-01-30T05:48:48;6.50;55.40
21807;DHT22;11065;50.786;7.840;2023-01-30T05:51:18;6.50;55.30
21807;DHT22;11065;50.786;7.840;2023-01-30T05:53:48;6.50;55.50
21807;DHT22;11065;50.786;7.840;2023-01-30T05:56:17;6.50;55.90
21807;DHT22;11065;50.786;7.840;2023-01-30T05:58:51;6.50;56.50
21807;DHT22;11065;50.786;7.840;2023-01-30T06:01:20;6.60;56.10
21807;DHT22;11065;50.786;7.840;2023-01-30T06:03:49;6.60;55.70
21807;DHT22;11065;50.786;7.840;2023-01-30T06:06:18;6.60;55.60
21807;DHT22;11065;50.786;7.840;2023-01-30T06:08:51;6.60;56.00
21807;DHT22;11065;50.786;7.840;2023-01-30T06:11:20;6.60;55.70
21807;DHT22;11065;50.786;7.840;2023-01-30T06:13:48;6.60;55.60
21807;DHT22;11065;50.786;7.840;2023-01-30T06:16:19;6.60;55.80
21807;DHT22;11065;50.786;7.840;2023-01-30T06:18:48;6.60;55.90
21807;DHT22;11065;50.786;7.840;2023-01-30T06:21:16;6.60;56.30
21807;DHT22;11065;50.786;7.840;2023-01-30T06:23:45;6.60;55.80
21807;DHT22;11065;50.786;7.840;2023-01-30T06:26:14;6.60;55.90
21807;DHT22;11065;50.786;7.840;2023-01-30T06:28:42;6.60;56.40
21807;DHT22;11065;50.786;7.840;2023-01-30T06:31:10;6.60;56.20
21807;DHT22;11065;50.786;7.840;2023-01-30T06:33:40;6.60;56.70
21807;DHT22;11065;50.786;7.840;2023-01-30T06:36:10;6.60;56.20
21807;DHT22;11065;50.786;7.840;2023-01-30T06:38:40;6.60;56.00
21807;DHT22;11065;50.786;7.840;2023-01-30T06:41:09;6.60;56.30
21807;DHT22;11065;50.786;7.840;2023-01-30T06:43:38;6.70;56.60
21807;DHT22;11065;50.786;7.840;2023-01-30T06:46:08;6.60;56.20
21807;DHT22;11065;50.786;7.840;2023-01-30T06:48:36;6.70;56.40
21807;DHT22;11065;50.786;7.840;2023-01-30T06:51:06;6.70;56.60
21807;DHT22;11065;50.786;7.840;2023-01-30T06:53:35;6.70;56.70
21807;DHT22;11065;50.786;7.840;2023-01-30T06:56:04;6.70;56.50
21807;DHT22;11065;50.786;7.840;2023-01-30T06:58:32;6.70;57.00
21807;DHT22;11065;50.786;7.840;2023-01-30T07:01:01;6.70;56.80
21807;DHT22;11065;50.786;7.840;2023-01-30T07:03:29;6.80;56.80
21807;DHT22;11065;50.786;7.840;2023-01-30T07:05:58;6.80;56.50
21807;DHT22;11065;50.786;7.840;2023-01-30T07:08:28;6.80;56.60
21807;DHT22;11065;50.786;7.840;2023-01-30T07:10:56;6.80;56.70
21807;DHT22;11065;50.786;7.840;2023-01-30T07:13:24;6.80;56.50
21807;DHT22;11065;50.786;7.840;2023-01-30T07:15:53;6.80;56.70
21807;DHT22;11065;50.786;7.840;2023-01-30T07:18:21;6.90;56.50
21807;DHT22;11065;50.786;7.840;2023-01-30T07:20:50;6.90;57.10
21807;DHT22;11065;50.786;7.840;2023-01-30T07:23:18;6.90;56.90
21807;DHT22;11065;50.786;7.840;2023-01-30T07:25:48;7.00;56.90
21807;DHT22;11065;50.786;7.840;2023-01-30T07:28:16;7.00;56.80
21807;DHT22;11065;50.786;7.840;2023-01-30T07:30:45;7.00;56.90
21807;DHT22;11065;50.786;7.840;2023-01-30T07:33:16;7.00;57.80
21807;DHT22;11065;50.786;7.840;2023-01-30T07:35:44;7.10;57.50
21807;DHT22;11065;50.786;7.840;2023-01-30T07:38:13;7.10;57.40
21807;DHT22;11065;50.786;7.840;2023-01-30T07:40:41;7.10;57.30
21807;DHT22;11065;50.786;7.840;2023-01-30T07:43:12;7.20;57.80
21807;DHT22;11065;50.786;7.840;2023-01-30T07:45:42;7.30;57.60
21807;DHT22;11065;50.786;7.840;2023-01-30T07:48:13;7.20;57.70
21807;DHT22;11065;50.786;7.840;2023-01-30T07:50:43;7.30;58.10
21807;DHT22;11065;50.786;7.840;2023-01-30T07:53:13;7.40;57.60
21807;DHT22;11065;50.786;7.840;2023-01-30T07:55:42;7.40;57.80
21807;DHT22;11065;50.786;7.840;2023-01-30T07:58:13;7.50;58.20
21807;DHT22;11065;50.786;7.840;2023-01-30T08:00:42;7.50;58.00
21807;DHT22;11065;50.786;7.840;2023-01-30T08:03:12;7.60;57.90
21807;DHT22;11065;50.786;7.840;2023-01-30T08:05:40;7.60;57.90
21807;DHT22;11065;50.786;7.840;2023-01-30T08:08:10;7.60;57.90
21807;DHT22;11065;50.786;7.840;2023-01-30T08:10:38;7.70;58.10
21807;DHT22;11065;50.786;7.840;2023-01-30T08:13:06;7.80;57.90
21807;DHT22;11065;50.786;7.840;2023-01-30T08:15:36;7.80;57.70
21807;DHT22;11065;50.786;7.840;2023-01-30T08:18:05;7.80;57.60
21807;DHT22;11065;50.786;7.840;2023-01-30T08:20:35;7.90;57.70
21807;DHT22;11065;50.786;7.840;2023-01-30T08:23:04;7.90;57.80
21807;DHT22;11065;50.786;7.840;2023-01-30T08:25:32;7.90;57.80
21807;DHT22;11065;50.786;7.840;2023-01-30T08:28:01;8.00;57.70
21807;DHT22;11065;50.786;7.840;2023-01-30T08:30:30;8.00;57.80
21807;DHT22;11065;50.786;7.840;2023-01-30T08:33:01;8.00;57.80
21807;DHT22;11065;50.786;7.840;2023-01-30T08:35:30;8.10;57.90
21807;DHT22;11065;50.786;7.840;2023-01-30T08:37:58;8.10;57.80
21807;DHT22;11065;50.786;7.840;2023-01-30T08:40:27;8.10;57.80
21807;DHT22;11065;50.786;7.840;2023-01-30T08:42:55;8.20;57.80
21807;DHT22;11065;50.786;7.840;2023-01-30T08:45:23;8.20;57.70
21807;DHT22;11065;50.786;7.840;2023-01-30T08:47:52;8.20;57.70
21807;DHT22;11065;50.786;7.840;2023-01-30T08:50:22;8.20;57.60
21807;DHT22;11065;50.786;7.840;2023-01-30T08:52:50;8.20;57.80
21807;DHT22;11065;50.786;7.840;2023-01-30T08:55:19;8.20;57.70
21807;DHT22;11065;50.786;7.840;2023-01-30T08:57:48;8.30;57.80
21807;DHT22;11065;50.786;7.840;2023-01-30T09:00:17;8.30;57.80
21807;DHT22;11065;50.786;7.840;2023-01-30T09:02:46;8.30;57.80
21807;DHT22;11065;50.786;7.840;2023-01-30T09:05:15;8.40;57.80
21807;DHT22;11065;50.786;7.840;2023-01-30T09:07:45;8.40;57.60
21807;DHT22;11065;50.786;7.840;2023-01-30T09:10:13;8.40;57.70
21807;DHT22;11065;50.786;7.840;2023-01-30T09:12:43;8.40;57.60
21807;DHT22;11065;50.786;7.840;2023-01-30T09:15:12;8.50;57.60
21807;DHT22;11065;50.786;7.840;2023-01-30T09:17:41;8.50;57.70
21807;DHT22;11065;50.786;7.840;2023-01-30T09:20:11;8.50;57.70
21807;DHT22;11065;50.786;7.840;2023-01-30T09:22:40;8.50;57.70
21807;DHT22;11065;50.786;7.840;2023-01-30T09:25:13;8.50;57.60
21807;DHT22;11065;50.786;7.840;2023-01-30T09:27:42;8.50;57.80
21807;DHT22;11065;50.786;7.840;2023-01-30T09:30:11;8.50;57.60
21807;DHT22;11065;50.786;7.840;2023-01-30T09:32:40;8.60;57.70
21807;DHT22;11065;50.786;7.840;2023-01-30T09:35:11;8.60;57.80
21807;DHT22;11065;50.786;7.840;2023-01-30T09:37:46;8.60;57.80
21807;DHT22;11065;50.786;7.840;2023-01-30T09:40:17;8.60;57.90
21807;DHT22;11065;50.786;7.840;2023-01-30T09:43:07;8.70;57.80
21807;DHT22;11065;50.786;7.840;2023-01-30T09:45:43;8.80;57.80
21807;DHT22;11065;50.786;7.840;2023-01-30T09:48:19;8.80;58.10
21807;DHT22;11065;50.786;7.840;2023-01-30T09:51:21;8.90;57.70
21807;DHT22;11065;50.786;7.840;2023-01-30T09:54:03;9.00;57.90
21807;DHT22;11065;50.786;7.840;2023-01-30T09:56:36;9.00;57.80
21807;DHT22;11065;50.786;7.840;2023-01-30T09:59:04;9.10;57.70
21807;DHT22;11065;50.786;7.840;2023-01-30T10:01:43;9.20;57.60
21807;DHT22;11065;50.786;7.840;2023-01-30T10:04:20;9.30;57.40
21807;DHT22;11065;50.786;7.840;2023-01-30T10:07:01;9.30;57.30
21807;DHT22;11065;50.786;7.840;2023-01-30T10:09:37;9.30;57.10
21807;DHT22;11065;50.786;7.840;2023-01-30T10:12:28;9.40;57.20
21807;DHT22;11065;50.786;7.840;2023-01-30T10:15:25;9.40;57.40
21807;DHT22;11065;50.786;7.840;2023-01-30T10:21:07;9.50;57.00
21807;DHT22;11065;50.786;7.840;2023-01-30T10:23:57;9.60;56.90
21807;DHT22;11065;50.786;7.840;2023-01-30T10:26:29;9.60;56.80
21807;DHT22;11065;50.786;7.840;2023-01-30T10:29:03;9.60;56.60
21807;DHT22;11065;50.786;7.840;2023-01-30T10:31:39;9.60;56.40
21807;DHT22;11065;50.786;7.840;2023-01-30T10:34:13;9.60;56.40
21807;DHT22;11065;50.786;7.840;2023-01-30T10:36:50;9.60;56.40
21807;DHT22;11065;50.786;7.840;2023-01-30T10:39:27;9.60;56.30
21807;DHT22;11065;50.786;7.840;2023-01-30T10:42:06;9.60;56.10
21807;DHT22;11065;50.786;7.840;2023-01-30T10:44:39;9.60;56.20
21807;DHT22;11065;50.786;7.840;2023-01-30T10:47:28;9.60;56.60
21807;DHT22;11065;50.786;7.840;2023-01-30T10:50:15;9.60;55.90
21807;DHT22;11065;50.786;7.840;2023-01-30T10:52:51;9.60;55.90
21807;DHT22;11065;50.786;7.840;2023-01-30T10:55:29;9.70;56.10
21807;DHT22;11065;50.786;7.840;2023-01-30T10:58:12;9.80;57.10
21807;DHT22;11065;50.786;7.840;2023-01-30T11:00:48;10.00;56.90
21807;DHT22;11065;50.786;7.840;2023-01-30T11:03:23;10.20;56.10
21807;DHT22;11065;50.786;7.840;2023-01-30T11:05:56;10.20;55.50
21807;DHT22;11065;50.786;7.840;2023-01-30T11:08:30;10.30;55.00
21807;DHT22;11065;50.786;7.840;2023-01-30T11:11:00;10.30;54.80
21807;DHT22;11065;50.786;7.840;2023-01-30T11:13:30;10.20;54.80
21807;DHT22;11065;50.786;7.840;2023-01-30T11:16:04;10.20;54.70
21807;DHT22;11065;50.786;7.840;2023-01-30T11:18:43;10.20;53.90
21807;DHT22;11065;50.786;7.840;2023-01-30T11:21:33;10.20;54.30
21807;DHT22;11065;50.786;7.840;2023-01-30T11:24:14;10.20;54.70
21807;DHT22;11065;50.786;7.840;2023-01-30T11:26:44;10.20;55.10
21807;DHT22;11065;50.786;7.840;2023-01-30T11:29:19;10.40;55.30
21807;DHT22;11065;50.786;7.840;2023-01-30T11:31:52;10.40;55.20
21807;DHT22;11065;50.786;7.840;2023-01-30T11:34:23;10.50;54.90
21807;DHT22;11065;50.786;7.840;2023-01-30T11:36:52;10.60;53.80
21807;DHT22;11065;50.786;7.840;2023-01-30T11:39:26;10.60;53.90
21807;DHT22;11065;50.786;7.840;2023-01-30T11:41:58;10.60;53.80
21807;DHT22;11065;50.786;7.840;2023-01-30T11:44:30;10.60;53.50
21807;DHT22;11065;50.786;7.840;2023-01-30T11:47:05;10.60;53.40
21807;DHT22;11065;50.786;7.840;2023-01-30T11:49:40;10.50;53.40
21807;DHT22;11065;50.786;7.840;2023-01-30T11:52:16;10.40;53.20
21807;DHT22;11065;50.786;7.840;2023-01-30T11:54:46;10.40;53.40
21807;DHT22;11065;50.786;7.840;2023-01-30T11:57:17;10.40;53.30
21807;DHT22;11065;50.786;7.840;2023-01-30T11:59:52;10.30;53.30
21807;DHT22;11065;50.786;7.840;2023-01-30T12:02:27;10.30;53.40
21807;DHT22;11065;50.786;7.840;2023-01-30T12:04:59;10.20;53.20
21807;DHT22;11065;50.786;7.840;2023-01-30T12:07:30;10.20;53.30
21807;DHT22;11065;50.786;7.840;2023-01-30T12:09:59;10.10;53.30
21807;DHT22;11065;50.786;7.840;2023-01-30T12:12:30;10.10;53.30
21807;DHT22;11065;50.786;7.840;2023-01-30T12:15:10;10.10;53.10
21807;DHT22;11065;50.786;7.840;2023-01-30T12:17:46;10.10;53.20
21807;DHT22;11065;50.786;7.840;2023-01-30T12:20:22;10.00;52.50
21807;DHT22;11065;50.786;7.840;2023-01-30T12:22:59;10.00;52.90
21807;DHT22;11065;50.786;7.840;2023-01-30T12:25:37;10.00;53.00
21807;DHT22;11065;50.786;7.840;2023-01-30T12:28:13;10.00;53.10
21807;DHT22;11065;50.786;7.840;2023-01-30T12:30:47;9.90;53.10
21807;DHT22;11065;50.786;7.840;2023-01-30T12:33:18;9.90;52.90
21807;DHT22;11065;50.786;7.840;2023-01-30T12:35:58;9.90;53.10
21807;DHT22;11065;50.786;7.840;2023-01-30T12:38:55;9.90;53.10
21807;DHT22;11065;50.786;7.840;2023-01-30T12:41:47;9.90;53.10
21807;DHT22;11065;50.786;7.840;2023-01-30T12:44:50;9.90;53.10
21807;DHT22;11065;50.786;7.840;2023-01-30T12:47:38;9.90;52.90
21807;DHT22;11065;50.786;7.840;2023-01-30T12:50:22;9.80;53.00
21807;DHT22;11065;50.786;7.840;2023-01-30T12:53:23;9.80;53.00
21807;DHT22;11065;50.786;7.840;2023-01-30T12:56:07;9.80;53.00
21807;DHT22;11065;50.786;7.840;2023-01-30T12:58:48;9.80;53.30
21807;DHT22;11065;50.786;7.840;2023-01-30T13:01:24;9.90;53.40
21807;DHT22;11065;50.786;7.840;2023-01-30T13:04:04;9.90;53.20
21807;DHT22;11065;50.786;7.840;2023-01-30T13:06:57;9.90;53.10
21807;DHT22;11065;50.786;7.840;2023-01-30T13:09:52;9.90;53.00
21807;DHT22;11065;50.786;7.840;2023-01-30T13:12:32;9.90;53.10
21807;DHT22;11065;50.786;7.840;2023-01-30T13:15:13;10.00;53.30
21807;DHT22;11065;50.786;7.840;2023-01-30T13:17:59;10.10;53.30
21807;DHT22;11065;50.786;7.840;2023-01-30T13:20:49;10.10;53.30
21807;DHT22;11065;50.786;7.840;2023-01-30T13:23:26;10.10;53.40
21807;DHT22;11065;50.786;7.840;2023-01-30T13:26:02;10.20;54.00
21807;DHT22;11065;50.786;7.840;2023-01-30T13:28:35;10.30;53.60
21807;DHT22;11065;50.786;7.840;2023-01-30T13:31:09;10.40;53.50
21807;DHT22;11065;50.786;7.840;2023-01-30T13:33:41;10.50;53.40
21807;DHT22;11065;50.786;7.840;2023-01-30T13:36:13;10.60;53.50
21807;DHT22;11065;50.786;7.840;2023-01-30T13:38:55;10.70;52.70
21807;DHT22;11065;50.786;7.840;2023-01-30T13:41:29;10.70;52.70
21807;DHT22;11065;50.786;7.840;2023-01-30T13:44:10;10.80;52.70
21807;DHT22;11065;50.786;7.840;2023-01-30T13:46:43;10.80;52.60
21807;DHT22;11065;50.786;7.840;2023-01-30T13:49:18;10.80;52.50
21807;DHT22;11065;50.786;7.840;2023-01-30T13:51:53;10.80;52.30
21807;DHT22;11065;50.786;7.840;2023-01-30T13:54:51;10.80;52.20
21807;DHT22;11065;50.786;7.840;2023-01-30T13:57:28;10.70;51.80
21807;DHT22;11065;50.786;7.840;2023-01-30T14:00:26;10.70;52.20
21807;DHT22;11065;50.786;7.840;2023-01-30T14:03:20;10.80;52.10
21807;DHT22;11065;50.786;7.840;2023-01-30T14:06:35;10.80;52.10
21807;DHT22;11065;50.786;7.840;2023-01-30T14:09:18;10.80;52.10
21807;DHT22;11065;50.786;7.840;2023-01-30T14:11:55;10.80;52.40
21807;DHT22;11065;50.786;7.840;2023-01-30T14:14:29;10.70;51.90
21807;DHT22;11065;50.786;7.840;2023-01-30T14:17:08;10.70;51.80
21807;DHT22;11065;50.786;7.840;2023-01-30T14:19:43;10.60;51.70
21807;DHT22;11065;50.786;7.840;2023-01-30T14:22:19;10.60;51.90
21807;DHT22;11065;50.786;7.840;2023-01-30T14:25:28;10.50;52.10
21807;DHT22;11065;50.786;7.840;2023-01-30T14:31:52;10.40;52.30
21807;DHT22;11065;50.786;7.840;2023-01-30T14:34:39;10.40;52.40
21807;DHT22;11065;50.786;7.840;2023-01-30T14:40:25;10.50;52.40
21807;DHT22;11065;50.786;7.840;2023-01-30T14:43:26;10.40;52.10
21807;DHT22;11065;50.786;7.840;2023-01-30T14:45:58;10.40;51.60
21807;DHT22;11065;50.786;7.840;2023-01-30T14:48:31;10.40;52.00
21807;DHT22;11065;50.786;7.840;2023-01-30T14:51:13;10.40;52.10
21807;DHT22;11065;50.786;7.840;2023-01-30T14:53:53;10.40;52.20
21807;DHT22;11065;50.786;7.840;2023-01-30T14:56:48;10.40;52.20
21807;DHT22;11065;50.786;7.840;2023-01-30T14:59:21;10.50;52.10
21807;DHT22;11065;50.786;7.840;2023-01-30T15:02:17;10.50;52.40
21807;DHT22;11065;50.786;7.840;2023-01-30T15:04:56;10.50;52.20
21807;DHT22;11065;50.786;7.840;2023-01-30T15:07:28;10.60;52.10
21807;DHT22;11065;50.786;7.840;2023-01-30T15:10:00;10.70;52.10
21807;DHT22;11065;50.786;7.840;2023-01-30T15:13:12;10.70;51.70
21807;DHT22;11065;50.786;7.840;2023-01-30T15:15:50;10.70;51.20
21807;DHT22;11065;50.786;7.840;2023-01-30T15:18:42;10.60;51.50
21807;DHT22;11065;50.786;7.840;2023-01-30T15:21:33;10.60;50.70
21807;DHT22;11065;50.786;7.840;2023-01-30T15:24:15;10.60;51.10
21807;DHT22;11065;50.786;7.840;2023-01-30T15:26:54;10.60;51.30
21807;DHT22;11065;50.786;7.840;2023-01-30T15:29:40;10.50;51.10
21807;DHT22;11065;50.786;7.840;2023-01-30T15:32:16;10.50;51.30
21807;DHT22;11065;50.786;7.840;2023-01-30T15:34:50;10.40;51.30
21807;DHT22;11065;50.786;7.840;2023-01-30T15:37:32;10.30;51.30
21807;DHT22;11065;50.786;7.840;2023-01-30T15:40:26;10.30;51.30
21807;DHT22;11065;50.786;7.840;2023-01-30T15:43:07;10.30;51.10
21807;DHT22;11065;50.786;7.840;2023-01-30T15:45:46;10.20;51.30
21807;DHT22;11065;50.786;7.840;2023-01-30T15:48:38;10.20;51.40
21807;DHT22;11065;50.786;7.840;2023-01-30T15:51:13;10.10;51.20
21807;DHT22;11065;50.786;7.840;2023-01-30T15:53:45;10.10;51.40
21807;DHT22;11065;50.786;7.840;2023-01-30T15:56:18;10.10;51.50
21807;DHT22;11065;50.786;7.840;2023-01-30T15:58:50;10.00;51.50
21807;DHT22;11065;50.786;7.840;2023-01-30T16:01:21;10.00;51.50
21807;DHT22;11065;50.786;7.840;2023-01-30T16:03:50;9.90;51.50
21807;DHT22;11065;50.786;7.840;2023-01-30T16:06:27;9.90;51.60
21807;DHT22;11065;50.786;7.840;2023-01-30T16:08:59;9.90;51.60
21807;DHT22;11065;50.786;7.840;2023-01-30T16:11:37;9.90;51.80
21807;DHT22;11065;50.786;7.840;2023-01-30T16:14:10;9.80;51.70
21807;DHT22;11065;50.786;7.840;2023-01-30T16:16:42;9.80;51.70
21807;DHT22;11065;50.786;7.840;2023-01-30T16:19:20;9.90;51.90
21807;DHT22;11065;50.786;7.840;2023-01-30T16:21:54;9.70;52.10
21807;DHT22;11065;50.786;7.840;2023-01-30T16:24:27;9.70;52.20
21807;DHT22;11065;50.786;7.840;2023-01-30T16:26:57;9.70;52.20
21807;DHT22;11065;50.786;7.840;2023-01-30T16:29:31;9.70;52.10
21807;DHT22;11065;50.786;7.840;2023-01-30T16:32:00;9.60;52.10
21807;DHT22;11065;50.786;7.840;2023-01-30T16:34:31;9.60;52.10
21807;DHT22;11065;50.786;7.840;2023-01-30T16:37:05;9.60;52.10
21807;DHT22;11065;50.786;7.840;2023-01-30T16:39:38;9.60;51.90
21807;DHT22;11065;50.786;7.840;2023-01-30T16:42:21;9.60;52.00